page 6860 of 1004621 registered users

eBook PostsUsers

  1. 0libra6fine registered @ 2013-04-12 11:30:01, last login @ 2013-04-12 11:30:01
  2. 0lyresharon6 registered @ 2013-04-12 11:30:08, last login @ 2013-04-12 11:30:08
  3. 0flatleg3 registered @ 2013-04-12 11:30:27, last login @ 2013-04-12 11:30:27
  4. 0pailsea8 registered @ 2013-04-12 11:31:16, last login @ 2013-04-12 11:31:16
  5. 0studyruth29 registered @ 2013-04-12 11:31:49, last login @ 2013-04-12 11:31:49
  6. 0fall3open registered @ 2013-04-12 11:31:50, last login @ 2013-04-12 11:31:50
  7. 0bitebreath77 registered @ 2013-04-12 11:32:13, last login @ 2013-04-12 11:32:13
  8. 0boltcanvas6 registered @ 2013-04-12 11:33:19, last login @ 2013-04-12 11:33:19
  9. 0matchpiano2 registered @ 2013-04-12 11:33:36, last login @ 2013-04-12 11:33:36
  10. 0georgerandom6 registered @ 2013-04-12 11:34:11, last login @ 2013-04-12 11:34:11
  11. 0gooseflavor25 registered @ 2013-04-12 11:34:33, last login @ 2013-04-12 11:34:33
  12. 0italycod2 registered @ 2013-04-12 11:35:42, last login @ 2013-04-12 11:35:42
  13. 0pepperfemale89 registered @ 2013-04-12 11:35:45, last login @ 2013-04-12 11:35:45
  14. 0design11forest registered @ 2013-04-12 11:36:24, last login @ 2013-04-12 11:36:24
  15. 0streetlinen1 registered @ 2013-04-12 11:37:28, last login @ 2013-04-12 11:37:28
  16. 0domaintheory7 registered @ 2013-04-12 11:38:25, last login @ 2013-04-12 11:38:25
  17. 0pin4active registered @ 2013-04-12 11:38:25, last login @ 2013-04-12 11:38:25
  18. 0friday3light registered @ 2013-04-12 11:38:58, last login @ 2013-04-12 11:38:58
  19. 0mondayfly74 registered @ 2013-04-12 11:40:03, last login @ 2013-04-12 11:53:26
  20. 0markmass21 registered @ 2013-04-12 11:40:41, last login @ 2013-04-12 11:40:41
  21. 0jumper78flesh registered @ 2013-04-12 11:40:51, last login @ 2013-04-12 11:40:51
  22. 0salmon05betty registered @ 2013-04-12 11:41:06, last login @ 2013-04-12 11:41:06
  23. 0clefamount68 registered @ 2013-04-12 11:43:26, last login @ 2013-04-12 11:43:26
  24. 0taste87wheel registered @ 2013-04-12 11:43:50, last login @ 2013-04-12 11:43:50
  25. 0atom9anime registered @ 2013-04-12 11:45:43, last login @ 2013-04-12 11:45:43
  26. 0offertomato60 registered @ 2013-04-12 11:47:05, last login @ 2013-04-12 11:47:05
  27. 0metal9pants registered @ 2013-04-12 11:47:18, last login @ 2013-04-12 11:47:18
  28. 0uganda83link registered @ 2013-04-12 11:47:44, last login @ 2013-04-12 11:47:44
  29. 0grassinsect45 registered @ 2013-04-12 11:48:13, last login @ 2013-04-12 11:48:13
  30. 0coastseal26 registered @ 2013-04-12 11:48:57, last login @ 2013-04-12 11:48:57
  31. 0cycle5bell registered @ 2013-04-12 11:49:41, last login @ 2013-04-12 11:49:41
  32. 0needtree3 registered @ 2013-04-12 11:49:54, last login @ 2013-04-12 11:49:54
  33. 0middle10shade registered @ 2013-04-12 11:50:17, last login @ 2013-04-12 11:50:17
  34. 0sprout5shirt registered @ 2013-04-12 11:50:25, last login @ 2013-04-12 11:50:25
  35. 0answercall49 registered @ 2013-04-12 11:51:04, last login @ 2013-04-12 11:51:04
  36. 0powderbeetle40 registered @ 2013-04-12 11:51:22, last login @ 2013-04-12 11:51:22
  37. 0week37alley registered @ 2013-04-12 11:52:10, last login @ 2013-04-12 11:52:10
  38. 0redcanada9 registered @ 2013-04-12 11:53:30, last login @ 2013-04-12 11:53:30
  39. 0gfss30n78 registered @ 2013-04-12 11:53:58, last login @ 2013-04-12 11:53:58
  40. 0gander08hip registered @ 2013-04-12 11:56:33, last login @ 2013-04-12 11:56:33
  41. 0roof04switch registered @ 2013-04-12 11:57:34, last login @ 2013-04-12 11:57:34
  42. 0client14bead registered @ 2013-04-12 11:57:36, last login @ 2013-04-12 11:57:36
  43. 0mind63baby registered @ 2013-04-12 11:57:56, last login @ 2013-04-12 11:57:56
  44. 0bonsaisyria6 registered @ 2013-04-12 11:59:46, last login @ 2013-04-12 11:59:46
  45. 0pastrycrime8 registered @ 2013-04-12 12:00:56, last login @ 2013-04-12 12:00:56
  46. 0shark02polo registered @ 2013-04-12 12:00:59, last login @ 2013-04-12 12:00:59
  47. 0switch7error registered @ 2013-04-12 12:01:01, last login @ 2013-04-12 12:01:01
  48. 0condorcanada07 registered @ 2013-04-12 12:02:14, last login @ 2013-04-12 12:19:33
  49. 0cork04pie registered @ 2013-04-12 12:02:34, last login @ 2013-04-12 12:02:34
  50. 0diggerlawyer3 registered @ 2013-04-12 12:02:48, last login @ 2013-04-12 12:02:48
  51. 0flight5system registered @ 2013-04-12 12:03:52, last login @ 2013-04-12 12:03:52
  52. 0brushregret1 registered @ 2013-04-12 12:04:55, last login @ 2013-04-12 12:04:55
  53. 0feast92emery registered @ 2013-04-12 12:05:14, last login @ 2013-04-12 12:05:14
  54. 0cribzoo67 registered @ 2013-04-12 12:05:20, last login @ 2013-04-12 12:05:20
  55. 0bass4drama registered @ 2013-04-12 12:05:43, last login @ 2013-04-12 12:05:43
  56. 0basket98monkey registered @ 2013-04-12 12:05:47, last login @ 2013-04-12 12:05:47
  57. 0yard2tomato registered @ 2013-04-12 12:06:04, last login @ 2013-04-12 12:06:04
  58. 0nosecancer2 registered @ 2013-04-12 12:06:30, last login @ 2013-04-12 13:00:37
  59. 0curlerlilac75 registered @ 2013-04-12 12:07:48, last login @ 2013-04-12 12:07:48
  60. 0tgmb registered @ 2013-04-12 12:09:42, last login @ 2013-04-12 12:10:13
  61. 0group65square registered @ 2013-04-12 12:11:40, last login @ 2013-04-12 12:24:31
  62. 0alphalloyd819 registered @ 2013-04-12 12:11:59, last login @ 2013-04-12 12:11:59
  63. 0ronald18wire registered @ 2013-04-12 12:13:01, last login @ 2013-04-12 12:13:01
  64. 0radargirl9 registered @ 2013-04-12 12:13:14, last login @ 2013-04-12 12:13:14
  65. 0dewshow24 registered @ 2013-04-12 12:15:16, last login @ 2013-04-12 12:15:16
  66. 0okrabutane14 registered @ 2013-04-12 12:16:26, last login @ 2013-04-12 12:16:26
  67. 0date2lynx registered @ 2013-04-12 12:17:01, last login @ 2013-04-12 12:17:01
  68. 0dealmouse0 registered @ 2013-04-12 12:17:02, last login @ 2013-04-12 12:17:02
  69. 0parcel2camera registered @ 2013-04-12 12:17:39, last login @ 2013-04-12 12:17:39
  70. 0smileease2 registered @ 2013-04-12 12:18:14, last login @ 2013-04-12 12:18:14
  71. 0sleep8girl registered @ 2013-04-12 12:18:20, last login @ 2013-04-12 12:18:20
  72. 0birch5lynx registered @ 2013-04-12 12:18:59, last login @ 2013-04-12 12:18:59
  73. 0israelorange64 registered @ 2013-04-12 12:19:48, last login @ 2013-04-12 12:19:48
  74. 0sinksanta3 registered @ 2013-04-12 12:20:58, last login @ 2013-04-12 12:20:58
  75. 0turnipcream07 registered @ 2013-04-12 12:21:22, last login @ 2013-04-12 12:21:22
  76. 0tailalto6 registered @ 2013-04-12 12:24:03, last login @ 2013-04-12 12:24:03
  77. 0owlbomb0 registered @ 2013-04-12 12:26:02, last login @ 2013-04-12 12:26:02
  78. 0banglewater1 registered @ 2013-04-12 12:26:27, last login @ 2013-04-12 12:26:27
  79. 0action35banker registered @ 2013-04-12 12:27:04, last login @ 2013-04-12 12:27:04
  80. 0collarchime97 registered @ 2013-04-12 12:29:11, last login @ 2013-04-12 12:29:11
  81. 0bolt29level registered @ 2013-04-12 12:30:11, last login @ 2013-04-12 12:30:11
  82. 0rock2scent registered @ 2013-04-12 12:31:16, last login @ 2013-04-12 12:31:16
  83. 0riddle49cymbal registered @ 2013-04-12 12:32:11, last login @ 2013-04-12 12:32:11
  84. 0sign2event registered @ 2013-04-12 12:32:34, last login @ 2013-04-12 12:32:34
  85. 0sailorboard1 registered @ 2013-04-12 12:33:39, last login @ 2013-04-12 12:33:39
  86. 0cub8tomato registered @ 2013-04-12 12:36:13, last login @ 2013-04-12 12:36:13
  87. 0temper2cereal registered @ 2013-04-12 12:36:19, last login @ 2013-04-12 12:36:19
  88. 0yamchick5 registered @ 2013-04-12 12:36:41, last login @ 2013-04-12 12:36:41
  89. 0hate5yoke registered @ 2013-04-12 12:36:44, last login @ 2013-04-12 12:36:44
  90. 0chief2order registered @ 2013-04-12 12:36:45, last login @ 2013-04-12 12:36:45
  91. 0pantspisces1 registered @ 2013-04-12 12:37:18, last login @ 2013-04-12 12:37:18
  92. 0office67market registered @ 2013-04-12 12:37:37, last login @ 2013-04-12 12:37:37
  93. 0crookpanda34 registered @ 2013-04-12 12:38:22, last login @ 2013-04-12 12:38:22
  94. 0pisces38hemp registered @ 2013-04-12 12:39:42, last login @ 2013-04-12 12:39:42
  95. 0chick87flute registered @ 2013-04-12 12:40:29, last login @ 2013-04-12 12:53:18
  96. 0german3modem registered @ 2013-04-12 12:42:07, last login @ 2013-04-12 12:42:07
  97. 0sleep43den registered @ 2013-04-12 12:42:44, last login @ 2013-04-12 12:42:44
  98. 0taurusworm5 registered @ 2013-04-12 12:43:28, last login @ 2013-04-12 12:43:28
  99. 0rice96meal registered @ 2013-04-12 12:43:33, last login @ 2013-04-12 12:43:33
  100. 0storygemini47 registered @ 2013-04-12 12:44:18, last login @ 2013-04-12 12:44:18
  101. 0phonestick97 registered @ 2013-04-12 12:45:17, last login @ 2013-04-12 12:45:17

More...

[6870] [6869] [6868] [6867] [6866] [6865] [6864] [6863] [6862] [6861] [6860] [6859] [6858] [6857] [6856] [6855] [6854] [6853] [6852] [6851] ...[1]
Back to Top